Time;durP1;ratioP1;P1;durP2;ratioP2;P2;SDS_P1;SDS_P2;PMS_P1;PMS_P2;Temp;Humidity;BMP_temperature;BMP_pressure;BME280_temperature;BME280_humidity;BME280_pressure;Samples;Min_cycle;Max_cycle;Signal;HPM_P1;HPM_P2
2022/02/27 00:00:37;;;;;;;18.17;12.02;;;7.20;99.90;;;;;;5109241;28;20075;-49
2022/02/27 00:03:05;;;;;;;17.83;13.13;;;7.10;99.90;;;;;;5093965;28;20117;-49
2022/02/27 00:05:31;;;;;;;20.55;13.13;;;7.10;99.90;;;;;;5093970;28;20028;-49
2022/02/27 00:07:57;;;;;;;19.60;13.75;;;7.20;99.90;;;;;;5093992;28;20055;-49
2022/02/27 00:10:23;;;;;;;21.60;13.52;;;7.20;99.90;;;;;;5091960;28;20083;-49
2022/02/27 00:12:50;;;;;;;62.58;55.92;;;7.20;99.90;;;;;;5093921;28;20032;-49
2022/02/27 00:15:16;;;;;;;21.15;13.65;;;7.10;99.90;;;;;;5093905;28;20023;-49
2022/02/27 00:17:42;;;;;;;24.95;15.88;;;7.10;99.90;;;;;;5092211;28;20050;-49
2022/02/27 00:20:09;;;;;;;23.27;13.90;;;7.20;99.90;;;;;;5093914;28;20028;-48
2022/02/27 00:22:35;;;;;;;92.18;60.75;;;7.20;99.90;;;;;;5109060;28;20050;-49
2022/02/27 00:25:01;;;;;;;20.17;14.90;;;7.20;99.90;;;;;;5093831;28;20106;-49
2022/02/27 00:27:27;;;;;;;23.83;15.07;;;7.30;99.90;;;;;;5093684;28;20052;-48
2022/02/27 00:29:53;;;;;;;21.80;14.70;;;7.20;99.90;;;;;;5093621;28;20443;-49
2022/02/27 00:32:18;;;;;;;23.55;15.60;;;7.10;99.90;;;;;;5093650;28;20499;-48
2022/02/27 00:34:44;;;;;;;22.02;14.18;;;7.10;99.90;;;;;;5093670;28;20056;-49
2022/02/27 00:37:10;;;;;;;28.92;20.42;;;7.20;99.90;;;;;;5093927;28;20451;-49
2022/02/27 00:39:36;;;;;;;23.42;16.30;;;7.10;99.90;;;;;;5093329;28;20047;-49
2022/02/27 00:42:02;;;;;;;23.95;17.42;;;7.20;99.90;;;;;;5093742;28;20089;-48
2022/02/27 00:44:27;;;;;;;24.45;17.55;;;7.10;99.90;;;;;;5108984;28;20051;-49
2022/02/27 00:46:53;;;;;;;23.05;16.55;;;7.20;99.90;;;;;;5092204;28;20045;-49
2022/02/27 00:49:19;;;;;;;23.60;15.82;;;7.20;99.90;;;;;;5075134;28;20548;-48
2022/02/27 00:51:45;;;;;;;25.67;19.42;;;7.20;99.90;;;;;;5091798;28;20468;-48
2022/02/27 00:54:13;;;;;;;26.15;17.95;;;7.20;99.90;;;;;;5093294;28;20028;-48
2022/02/27 00:56:39;;;;;;;25.75;18.58;;;7.20;99.90;;;;;;5093507;28;20036;-49
2022/02/27 00:59:05;;;;;;;22.88;16.95;;;7.20;99.90;;;;;;5093321;28;20472;-49
2022/02/27 01:01:31;;;;;;;19.13;14.80;;;7.10;99.90;;;;;;5092682;28;20044;-49
2022/02/27 01:03:56;;;;;;;20.10;15.88;;;7.00;99.90;;;;;;5097441;28;20508;-49
2022/02/27 01:06:23;;;;;;;28.27;20.15;;;7.20;99.90;;;;;;5095706;28;20036;-48
2022/02/27 01:08:50;;;;;;;22.02;14.88;;;7.20;99.90;;;;;;5062043;28;20510;-48
2022/02/27 01:11:16;;;;;;;21.30;17.60;;;7.00;99.90;;;;;;5097270;28;20134;-49
2022/02/27 01:13:42;;;;;;;17.45;13.88;;;7.00;99.90;;;;;;5097146;28;20040;-49
2022/02/27 01:16:08;;;;;;;19.10;16.02;;;7.00;99.90;;;;;;5097382;28;20107;-48
2022/02/27 01:18:34;;;;;;;17.67;13.73;;;6.90;99.90;;;;;;5097206;28;20036;-49
2022/02/27 01:21:00;;;;;;;19.80;16.17;;;6.80;99.90;;;;;;5112430;28;20506;-48
2022/02/27 01:23:26;;;;;;;19.30;17.15;;;6.80;99.90;;;;;;5097103;28;20031;-49
2022/02/27 01:25:52;;;;;;;23.20;17.33;;;6.90;99.90;;;;;;5097179;28;20452;-49
2022/02/27 01:28:18;;;;;;;22.88;16.75;;;6.90;99.90;;;;;;5112399;28;20036;-48
2022/02/27 01:30:44;;;;;;;18.80;16.40;;;6.90;99.90;;;;;;5096807;28;20391;-49
2022/02/27 01:33:10;;;;;;;22.30;17.33;;;6.70;99.90;;;;;;5096844;28;20482;-49
2022/02/27 01:35:35;;;;;;;29.45;20.77;;;6.90;99.90;;;;;;5096931;28;20024;-49
2022/02/27 01:38:02;;;;;;;19.92;16.25;;;6.90;99.90;;;;;;5096438;28;20056;-49
2022/02/27 01:40:28;;;;;;;17.90;14.25;;;7.00;99.90;;;;;;5096814;28;20024;-48
2022/02/27 01:42:54;;;;;;;18.13;14.02;;;6.90;99.90;;;;;;5111879;28;20162;-49
2022/02/27 01:45:19;;;;;;;18.63;14.35;;;6.90;99.90;;;;;;5096808;28;20034;-50
2022/02/27 01:47:45;;;;;;;16.23;14.05;;;7.00;99.90;;;;;;5096624;28;20036;-51
2022/02/27 01:50:11;;;;;;;17.88;14.60;;;7.00;99.90;;;;;;5096634;28;20054;-48
2022/02/27 01:52:37;;;;;;;20.50;14.75;;;7.10;99.90;;;;;;5096692;28;20040;-51
2022/02/27 01:55:05;;;;;;;15.80;12.05;;;7.10;99.90;;;;;;5096538;28;20035;-51
2022/02/27 01:57:32;;;;;;;17.42;13.88;;;6.90;99.90;;;;;;5094595;28;20403;-48
2022/02/27 01:59:57;;;;;;;20.50;13.77;;;6.80;99.90;;;;;;5096469;28;20119;-50
2022/02/27 02:02:23;;;;;;;18.90;14.77;;;6.70;99.90;;;;;;5111747;28;20119;-49
2022/02/27 02:04:49;;;;;;;17.63;12.35;;;6.70;99.90;;;;;;5096142;28;20055;-49
2022/02/27 02:07:15;;;;;;;17.27;14.57;;;6.50;99.90;;;;;;5096223;28;20061;-49
2022/02/27 02:09:41;;;;;;;17.42;14.93;;;6.40;99.90;;;;;;5096231;28;20077;-49
2022/02/27 02:12:11;;;;;;;18.15;14.50;;;6.60;99.90;;;;;;5096259;28;20036;-49
2022/02/27 02:14:37;;;;;;;18.88;15.75;;;6.70;99.90;;;;;;5095161;28;20154;-48
2022/02/27 02:17:03;;;;;;;20.00;13.82;;;6.70;99.90;;;;;;5094384;28;20119;-49
2022/02/27 02:19:29;;;;;;;18.00;13.55;;;6.40;99.90;;;;;;5095961;28;20036;-49
2022/02/27 02:21:59;;;;;;;19.70;16.02;;;6.30;99.90;;;;;;5095906;28;20038;-49
2022/02/27 02:24:25;;;;;;;16.80;12.75;;;6.40;99.90;;;;;;5060063;28;20047;-50
2022/02/27 02:26:51;;;;;;;17.10;13.85;;;6.30;99.90;;;;;;5093743;28;20040;-50
2022/02/27 02:29:19;;;;;;;14.95;12.40;;;6.40;99.90;;;;;;5026690;28;20052;-50
2022/02/27 02:31:47;;;;;;;16.88;11.02;;;6.30;99.90;;;;;;5093696;28;20051;-50
2022/02/27 02:34:15;;;;;;;31.38;18.38;;;6.20;99.90;;;;;;5093958;28;20122;-50
2022/02/27 02:36:44;;;;;;;16.65;13.02;;;6.10;99.90;;;;;;5093471;28;20028;-50
2022/02/27 02:39:12;;;;;;;17.77;12.05;;;6.10;99.90;;;;;;5093366;28;20059;-50
2022/02/27 02:41:38;;;;;;;16.80;12.43;;;;;;;;;;5093604;28;20035;-51
2022/02/27 02:44:05;;;;;;;187.38;148.82;;;6.10;99.90;;;;;;5093391;28;20046;-50
2022/02/27 02:46:31;;;;;;;369.38;330.45;;;6.00;99.90;;;;;;5093373;28;20035;-50
2022/02/27 02:48:57;;;;;;;242.80;206.40;;;;;;;;;;5093040;28;20403;-50
2022/02/27 02:51:24;;;;;;;466.60;425.92;;;6.10;99.90;;;;;;5093206;28;20028;-51
2022/02/27 02:53:50;;;;;;;552.15;503.63;;;6.00;99.90;;;;;;5059550;28;20047;-50
2022/02/27 02:56:15;;;;;;;17.90;12.93;;;6.10;99.90;;;;;;5095056;28;20036;-50
2022/02/27 02:58:42;;;;;;;14.35;10.40;;;6.20;99.90;;;;;;5110519;28;20040;-51
2022/02/27 03:01:10;;;;;;;14.15;11.15;;;6.00;99.90;;;;;;5110596;28;20491;-48
2022/02/27 03:03:37;;;;;;;19.08;14.80;;;6.00;99.90;;;;;;5090661;28;20391;-48
2022/02/27 03:06:03;;;;;;;15.98;9.93;;;6.20;99.90;;;;;;5095096;28;20024;-48
2022/02/27 03:08:29;;;;;;;14.68;10.13;;;6.00;99.90;;;;;;5093350;28;20459;-48
2022/02/27 03:10:55;;;;;;;17.92;13.73;;;6.10;99.90;;;;;;5094810;28;20119;-48
2022/02/27 03:13:21;;;;;;;14.38;10.30;;;6.10;99.90;;;;;;5095111;28;20028;-48
2022/02/27 03:15:47;;;;;;;17.50;12.05;;;6.00;99.90;;;;;;5095004;28;20482;-48
2022/02/27 03:18:14;;;;;;;14.30;10.25;;;6.00;99.90;;;;;;5094862;28;20035;-48
2022/02/27 03:20:40;;;;;;;17.58;13.88;;;6.00;99.90;;;;;;5094953;28;20470;-48
2022/02/27 03:23:06;;;;;;;16.00;11.20;;;6.00;99.90;;;;;;5094806;28;20024;-48
2022/02/27 03:25:32;;;;;;;13.40;10.43;;;6.10;99.90;;;;;;5094693;28;20020;-48
2022/02/27 03:27:58;;;;;;;16.35;11.88;;;6.00;99.90;;;;;;5092783;28;20039;-48
2022/02/27 03:30:24;;;;;;;15.70;11.38;;;6.00;99.90;;;;;;5094938;28;20036;-48
2022/02/27 03:32:50;;;;;;;11.45;8.25;;;6.00;99.90;;;;;;5094529;28;20034;-48
2022/02/27 03:35:17;;;;;;;11.75;8.63;;;5.90;99.90;;;;;;5092950;28;20040;-48
2022/02/27 03:37:43;;;;;;;15.93;10.93;;;5.90;99.90;;;;;;5109869;28;20460;-48
2022/02/27 03:40:09;;;;;;;17.38;12.73;;;5.90;99.90;;;;;;5094799;28;20379;-48
2022/02/27 03:42:35;;;;;;;15.70;11.27;;;5.90;99.90;;;;;;5059049;28;20032;-48
2022/02/27 03:45:01;;;;;;;17.70;12.23;;;6.00;99.90;;;;;;5094361;28;20102;-48
2022/02/27 03:47:27;;;;;;;15.52;11.43;;;5.90;99.90;;;;;;5094440;28;20114;-48
2022/02/27 03:49:54;;;;;;;16.17;12.60;;;5.90;99.90;;;;;;5094183;28;20166;-51
2022/02/27 03:52:20;;;;;;;14.10;10.38;;;6.00;99.90;;;;;;5092589;28;20039;-51
2022/02/27 03:54:46;;;;;;;11.18;8.35;;;5.90;99.90;;;;;;5094306;28;20024;-50
2022/02/27 03:57:12;;;;;;;16.48;11.52;;;5.80;99.90;;;;;;5094145;28;20077;-48
2022/02/27 03:59:38;;;;;;;13.98;9.85;;;5.90;99.90;;;;;;5092280;28;20040;-48
2022/02/27 04:02:04;;;;;;;11.38;9.05;;;5.90;99.90;;;;;;5058518;28;20460;-48
2022/02/27 04:04:29;;;;;;;11.80;9.02;;;5.80;99.90;;;;;;5094051;28;20495;-48
2022/02/27 04:06:55;;;;;;;11.60;8.88;;;5.90;99.90;;;;;;5093943;28;20039;-49
2022/02/27 04:09:21;;;;;;;10.20;7.28;;;5.80;99.90;;;;;;5093891;28;20036;-48
2022/02/27 04:11:47;;;;;;;11.55;8.93;;;5.80;99.90;;;;;;5093935;28;20028;-49
2022/02/27 04:14:13;;;;;;;11.10;6.68;;;5.70;99.90;;;;;;5093707;28;20090;-48
2022/02/27 04:16:38;;;;;;;11.63;8.95;;;5.70;99.90;;;;;;5092115;28;20043;-49
2022/02/27 04:19:04;;;;;;;8.27;5.60;;;5.80;99.90;;;;;;5091856;28;20075;-49
2022/02/27 04:21:30;;;;;;;9.68;7.15;;;5.70;99.90;;;;;;5109229;28;20036;-49
2022/02/27 04:23:56;;;;;;;10.20;7.00;;;5.70;99.90;;;;;;5091864;28;20035;-49
2022/02/27 04:26:22;;;;;;;8.82;7.05;;;5.80;99.90;;;;;;5093901;28;20043;-48
2022/02/27 04:28:47;;;;;;;11.65;7.80;;;5.70;99.90;;;;;;5092532;28;20075;-48
2022/02/27 04:31:13;;;;;;;8.30;5.97;;;5.70;99.90;;;;;;5093769;28;20047;-49
2022/02/27 04:33:39;;;;;;;12.27;4.60;;;5.80;99.90;;;;;;5093703;28;20088;-48
2022/02/27 04:36:05;;;;;;;495.90;446.20;;;5.70;99.90;;;;;;5093148;28;20089;-49
2022/02/27 04:38:31;;;;;;;11.63;7.57;;;5.70;99.90;;;;;;5091777;28;20048;-48
2022/02/27 04:40:57;;;;;;;8.80;5.82;;;5.70;99.90;;;;;;5057954;28;20040;-49
2022/02/27 04:43:22;;;;;;;8.65;6.18;;;5.70;99.90;;;;;;5091780;28;20436;-49
2022/02/27 04:45:48;;;;;;;12.68;8.07;;;5.70;99.90;;;;;;5093918;28;20103;-49
2022/02/27 04:48:14;;;;;;;11.82;8.73;;;5.80;99.90;;;;;;5093386;28;20036;-48
2022/02/27 04:50:40;;;;;;;11.45;7.78;;;5.80;99.90;;;;;;5093575;28;20494;-49
2022/02/27 04:53:06;;;;;;;12.88;8.07;;;5.80;99.90;;;;;;5093350;28;20032;-49
2022/02/27 04:55:31;;;;;;;12.70;6.40;;;5.80;99.90;;;;;;5093918;28;20562;-49
2022/02/27 04:57:57;;;;;;;8.95;5.85;;;5.80;99.90;;;;;;5093478;28;20059;-49
2022/02/27 05:00:23;;;;;;;11.77;9.32;;;5.80;99.90;;;;;;5093841;28;20028;-49
2022/02/27 05:02:49;;;;;;;8.07;5.82;;;5.80;99.90;;;;;;5093730;28;20024;-50
2022/02/27 05:05:14;;;;;;;15.50;8.07;;;5.80;99.90;;;;;;5108782;28;20395;-48
2022/02/27 05:07:40;;;;;;;7.97;6.28;;;5.70;99.90;;;;;;5093650;28;20024;-49
2022/02/27 05:10:08;;;;;;;156.70;136.75;;;5.70;99.90;;;;;;5093123;28;20468;-48
2022/02/27 05:12:38;;;;;;;7.88;6.47;;;5.70;99.90;;;;;;5091519;28;20036;-49
2022/02/27 05:15:06;;;;;;;15.48;9.77;;;5.70;99.90;;;;;;5093382;28;20020;-48
2022/02/27 05:17:32;;;;;;;11.52;7.90;;;5.60;99.90;;;;;;5057640;28;20035;-48
2022/02/27 05:19:59;;;;;;;6.03;5.18;;;5.60;99.90;;;;;;5093099;28;20021;-49
2022/02/27 05:22:25;;;;;;;8.00;5.25;;;5.50;99.90;;;;;;5093291;28;20107;-49
2022/02/27 05:24:51;;;;;;;8.60;5.93;;;5.50;99.90;;;;;;5057840;28;20036;-48
2022/02/27 05:27:17;;;;;;;493.05;448.85;;;5.50;99.90;;;;;;5091448;28;20059;-48
2022/02/27 05:29:42;;;;;;;10.15;6.18;;;5.60;99.90;;;;;;5093058;28;20471;-48
2022/02/27 05:32:08;;;;;;;12.40;7.78;;;5.60;99.90;;;;;;5108505;28;20032;-49
2022/02/27 05:34:34;;;;;;;7.55;6.10;;;5.50;99.90;;;;;;5091159;28;20442;-48
2022/02/27 05:37:00;;;;;;;11.77;7.32;;;5.50;99.90;;;;;;5108324;28;20067;-49
2022/02/27 05:39:26;;;;;;;11.35;7.30;;;5.50;99.90;;;;;;5093062;28;20120;-48
2022/02/27 05:41:51;;;;;;;9.27;6.90;;;5.50;99.90;;;;;;5093206;28;20024;-49
2022/02/27 05:44:17;;;;;;;8.68;6.78;;;5.50;99.90;;;;;;5093239;28;20067;-49
2022/02/27 05:46:43;;;;;;;10.68;7.47;;;5.50;99.90;;;;;;5093133;28;20570;-49
2022/02/27 05:49:09;;;;;;;12.23;6.07;;;5.60;99.90;;;;;;5094831;28;20024;-48
2022/02/27 05:51:34;;;;;;;12.93;8.23;;;5.60;99.90;;;;;;5111914;28;20066;-49
2022/02/27 05:54:00;;;;;;;11.73;8.45;;;5.60;99.90;;;;;;5096589;28;20024;-49
2022/02/27 05:56:26;;;;;;;11.63;9.75;;;5.60;99.90;;;;;;5096723;28;20035;-48
2022/02/27 05:58:52;;;;;;;12.98;9.15;;;5.80;99.90;;;;;;5096506;28;20039;-49
2022/02/27 06:01:18;;;;;;;9.35;6.93;;;5.70;99.90;;;;;;5111746;28;20097;-49
2022/02/27 06:03:44;;;;;;;9.85;6.80;;;5.80;99.90;;;;;;5096566;28;20406;-48
2022/02/27 06:06:10;;;;;;;12.30;8.00;;;5.80;99.90;;;;;;5096228;28;20032;-49
2022/02/27 06:08:36;;;;;;;8.65;6.60;;;5.80;99.90;;;;;;5096379;28;20024;-49
2022/02/27 06:11:01;;;;;;;5.32;4.28;;;5.90;99.90;;;;;;5111606;28;20036;-49
2022/02/27 06:13:28;;;;;;;11.20;7.78;;;5.90;99.90;;;;;;5096326;28;20498;-49
2022/02/27 06:15:54;;;;;;;9.82;6.82;;;5.90;99.90;;;;;;5096198;28;20096;-49
2022/02/27 06:18:20;;;;;;;9.02;6.78;;;5.90;99.90;;;;;;5095909;28;20514;-49
2022/02/27 06:20:45;;;;;;;11.38;7.70;;;6.00;99.90;;;;;;5095989;28;20051;-49
2022/02/27 06:23:11;;;;;;;12.40;7.60;;;6.00;99.90;;;;;;5095973;28;20168;-49
2022/02/27 06:25:38;;;;;;;10.65;7.72;;;6.00;99.90;;;;;;5096154;28;20028;-49
2022/02/27 06:28:04;;;;;;;9.73;7.07;;;6.10;99.90;;;;;;5095818;28;20034;-49
2022/02/27 06:30:31;;;;;;;92.80;71.65;;;6.10;99.90;;;;;;5093631;28;20415;-49
2022/02/27 06:32:57;;;;;;;6.30;5.25;;;6.20;99.90;;;;;;5093783;28;20028;-49
2022/02/27 06:35:24;;;;;;;563.63;510.75;;;6.10;99.90;;;;;;5053468;28;20043;-49
2022/02/27 06:37:52;;;;;;;13.50;9.35;;;6.20;99.90;;;;;;5053222;28;20033;-49
2022/02/27 06:40:18;;;;;;;103.07;69.47;;;6.20;99.90;;;;;;5053298;28;20052;-49
2022/02/27 06:42:45;;;;;;;115.28;71.57;;;6.20;99.90;;;;;;5053289;28;20029;-49
2022/02/27 06:45:12;;;;;;;12.50;8.63;;;6.20;99.90;;;;;;5053237;28;20492;-49
2022/02/27 06:47:38;;;;;;;8.82;7.03;;;6.30;99.90;;;;;;5053833;28;20069;-49
2022/02/27 06:50:05;;;;;;;10.68;8.40;;;6.30;99.90;;;;;;5021215;28;20079;-49
2022/02/27 06:52:31;;;;;;;11.48;7.40;;;6.40;99.90;;;;;;5021973;28;20129;-49
2022/02/27 06:54:56;;;;;;;7.88;5.50;;;6.40;99.90;;;;;;5038282;28;20056;-49
2022/02/27 06:57:22;;;;;;;112.95;99.25;;;6.40;99.90;;;;;;5055506;28;20025;-49
2022/02/27 06:59:48;;;;;;;33.53;19.15;;;6.30;99.90;;;;;;5055222;28;20036;-49
2022/02/27 07:02:14;;;;;;;13.20;6.40;;;6.40;99.90;;;;;;5036831;28;20481;-49
2022/02/27 07:04:40;;;;;;;13.23;7.78;;;6.30;99.90;;;;;;5036482;28;20061;-49
2022/02/27 07:07:06;;;;;;;11.70;7.65;;;6.30;99.90;;;;;;5019880;28;20480;-49
2022/02/27 07:09:32;;;;;;;9.20;6.35;;;6.40;99.90;;;;;;5052817;28;20074;-49
2022/02/27 07:11:58;;;;;;;10.15;5.43;;;6.40;99.90;;;;;;5043042;28;20039;-49
2022/02/27 07:14:23;;;;;;;11.48;5.82;;;6.50;99.90;;;;;;5110633;28;20028;-49
2022/02/27 07:16:49;;;;;;;11.38;7.80;;;6.40;99.90;;;;;;5095125;28;20024;-49
2022/02/27 07:19:15;;;;;;;14.77;8.32;;;6.50;99.90;;;;;;5110386;28;20032;-49
2022/02/27 07:21:41;;;;;;;13.50;6.70;;;6.60;99.90;;;;;;5095201;28;20494;-49
2022/02/27 07:24:07;;;;;;;9.90;6.00;;;6.60;99.90;;;;;;5059563;28;20028;-49
2022/02/27 07:26:33;;;;;;;24.38;15.07;;;6.60;99.90;;;;;;5095022;28;20028;-49
2022/02/27 07:28:59;;;;;;;17.35;11.05;;;6.70;99.90;;;;;;5095096;28;20024;-49
2022/02/27 07:31:25;;;;;;;6.20;5.35;;;6.70;99.90;;;;;;5095023;28;20032;-49
2022/02/27 07:33:51;;;;;;;59.78;48.50;;;6.70;99.90;;;;;;5059299;28;20036;-49
2022/02/27 07:36:17;;;;;;;126.72;102.93;;;6.70;99.90;;;;;;5095090;28;20024;-49
2022/02/27 07:38:43;;;;;;;78.10;48.75;;;6.80;99.90;;;;;;5094517;28;20044;-49
2022/02/27 07:41:09;;;;;;;232.00;206.85;;;6.90;99.90;;;;;;5093032;28;20038;-49
2022/02/27 07:43:35;;;;;;;373.00;328.77;;;6.90;99.90;;;;;;5109703;28;20058;-49
2022/02/27 07:46:02;;;;;;;676.80;610.10;;;6.90;99.90;;;;;;5092775;28;20036;-49
2022/02/27 07:48:28;;;;;;;369.10;330.25;;;6.90;99.90;;;;;;5094448;28;20055;-49
2022/02/27 07:50:54;;;;;;;167.52;122.45;;;7.00;99.90;;;;;;5094294;28;20071;-49
2022/02/27 07:53:20;;;;;;;10.98;6.03;;;7.00;99.90;;;;;;5094324;28;20036;-49
2022/02/27 07:55:46;;;;;;;119.10;106.28;;;7.00;99.90;;;;;;5094259;28;20057;-49
2022/02/27 07:58:13;;;;;;;6.85;5.63;;;7.00;99.90;;;;;;5093401;28;20040;-49
2022/02/27 08:00:40;;;;;;;20.40;7.63;;;6.90;99.90;;;;;;5094664;28;20070;-49
2022/02/27 08:03:08;;;;;;;15.75;10.18;;;7.00;99.90;;;;;;5094325;28;20111;-49
2022/02/27 08:05:34;;;;;;;42.17;25.95;;;6.90;99.90;;;;;;5094159;28;20025;-49
2022/02/27 08:07:59;;;;;;;337.67;302.85;;;6.90;99.90;;;;;;5094193;28;20027;-49
2022/02/27 08:10:27;;;;;;;5.72;3.22;;;7.00;99.90;;;;;;5093941;28;20035;-49
2022/02/27 08:12:53;;;;;;;704.10;635.50;;;7.00;99.90;;;;;;5093865;28;20040;-49
2022/02/27 08:15:20;;;;;;;23.95;13.80;;;7.00;99.90;;;;;;5094227;28;20035;-49
2022/02/27 08:17:46;;;;;;;156.68;109.50;;;7.00;99.90;;;;;;5109499;28;20036;-49
2022/02/27 08:20:12;;;;;;;14.82;5.32;;;7.00;99.90;;;;;;5109368;28;20047;-49
2022/02/27 08:22:39;;;;;;;16.40;4.65;;;7.00;99.90;;;;;;5094161;28;20051;-49
2022/02/27 08:25:07;;;;;;;570.63;510.10;;;7.10;99.90;;;;;;5093886;28;20028;-49
2022/02/27 08:27:33;;;;;;;633.67;570.40;;;7.20;99.90;;;;;;5058524;28;20036;-49
2022/02/27 08:29:59;;;;;;;741.83;674.67;;;7.20;99.90;;;;;;5093578;28;20039;-49
2022/02/27 08:32:25;;;;;;;769.50;701.30;;;7.10;99.90;;;;;;5093875;28;20090;-48
2022/02/27 08:34:51;;;;;;;795.88;727.28;;;7.10;99.90;;;;;;5093735;28;20035;-49
2022/02/27 08:37:18;;;;;;;785.70;717.05;;;7.20;99.90;;;;;;5093608;28;20028;-50
2022/02/27 08:39:44;;;;;;;769.95;701.50;;;;;;;;;;5093370;28;20058;-49
2022/02/27 08:42:11;;;;;;;490.40;451.25;;;7.40;99.90;;;;;;5074991;28;20044;-49
2022/02/27 08:44:38;;;;;;;420.60;381.77;;;7.50;99.90;;;;;;5094115;28;20020;-49
2022/02/27 08:47:05;;;;;;;4.63;2.95;;;7.50;99.90;;;;;;5094256;28;20032;-49
2022/02/27 08:49:31;;;;;;;8.20;4.47;;;7.50;99.90;;;;;;5093566;28;20020;-49
2022/02/27 08:51:58;;;;;;;5.13;3.75;;;7.60;99.90;;;;;;5093668;28;20566;-49
2022/02/27 08:54:24;;;;;;;9.40;4.80;;;7.50;99.90;;;;;;5058319;28;20038;-49
2022/02/27 08:56:50;;;;;;;459.90;387.58;;;7.60;99.90;;;;;;5093714;28;20386;-49
2022/02/27 08:59:16;;;;;;;18.42;16.17;;;7.60;99.90;;;;;;5093417;28;20111;-48
2022/02/27 09:01:42;;;;;;;6.35;4.68;;;7.50;99.90;;;;;;5093294;28;20024;-49
2022/02/27 09:04:08;;;;;;;6.25;3.20;;;7.60;99.90;;;;;;5093319;28;20024;-49
2022/02/27 09:06:34;;;;;;;6.30;4.30;;;7.50;99.90;;;;;;5108576;28;20040;-49
2022/02/27 09:09:00;;;;;;;4.97;3.08;;;7.50;99.90;;;;;;5093277;28;20039;-49
2022/02/27 09:11:26;;;;;;;7.85;4.18;;;7.50;99.90;;;;;;5093349;28;20080;-49
2022/02/27 09:13:52;;;;;;;11.55;4.70;;;7.60;99.90;;;;;;5093092;28;20111;-49
2022/02/27 09:16:18;;;;;;;16.75;9.77;;;7.70;99.90;;;;;;5093237;28;20024;-49
2022/02/27 09:18:44;;;;;;;7.57;4.93;;;7.70;99.90;;;;;;5093454;28;20029;-49
2022/02/27 09:21:09;;;;;;;6.50;4.40;;;7.80;99.90;;;;;;5093322;28;20031;-49
2022/02/27 09:23:35;;;;;;;14.50;8.50;;;7.80;99.90;;;;;;5111209;28;20058;-49
2022/02/27 09:26:03;;;;;;;6.07;3.95;;;7.90;99.90;;;;;;5112514;28;20379;-49
2022/02/27 09:28:28;;;;;;;4.18;3.00;;;7.90;99.90;;;;;;5097276;28;20430;-49
2022/02/27 09:30:55;;;;;;;128.02;97.38;;;7.80;99.90;;;;;;5095077;28;20048;-49
2022/02/27 09:33:21;;;;;;;77.30;54.92;;;7.90;99.90;;;;;;5096939;28;20028;-49
2022/02/27 09:35:47;;;;;;;35.92;18.92;;;7.80;99.90;;;;;;5112389;28;20123;-49
2022/02/27 09:38:13;;;;;;;6.15;3.58;;;7.70;99.90;;;;;;5096859;28;20123;-49
2022/02/27 09:40:39;;;;;;;731.67;666.65;;;7.90;99.90;;;;;;5096720;28;20081;-49
2022/02/27 09:43:04;;;;;;;297.10;272.63;;;7.80;99.90;;;;;;5097063;28;20024;-49
2022/02/27 09:45:30;;;;;;;70.93;60.17;;;7.90;99.90;;;;;;5061683;28;20089;-49
2022/02/27 09:47:57;;;;;;;4.78;2.92;;;8.00;99.90;;;;;;5112029;28;20502;-49
2022/02/27 09:50:23;;;;;;;260.15;236.65;;;7.90;99.90;;;;;;5096567;28;20052;-49
2022/02/27 09:52:50;;;;;;;65.28;38.50;;;8.00;99.90;;;;;;5096535;28;20020;-49
2022/02/27 09:55:17;;;;;;;10.40;7.70;;;8.10;99.90;;;;;;5097014;28;20034;-49
2022/02/27 09:57:49;;;;;;;705.28;639.75;;;8.30;99.90;;;;;;5096676;28;20043;-49
2022/02/27 10:00:17;;;;;;;6.57;3.83;;;8.40;99.90;;;;;;5096768;28;20115;-49
2022/02/27 10:03:02;;;;;;;8.52;3.10;;;8.40;99.90;;;;;;5096618;28;20040;-49
2022/02/27 10:05:27;;;;;;;6.15;3.80;;;8.50;99.90;;;;;;5096598;28;20498;-49
2022/02/27 10:07:58;;;;;;;697.70;636.88;;;8.60;99.90;;;;;;5096599;28;20032;-49
2022/02/27 10:10:24;;;;;;;744.40;678.28;;;;;;;;;;5096353;28;20078;-49
2022/02/27 10:12:50;;;;;;;745.37;677.27;;;9.10;99.90;;;;;;5096258;28;20032;-49
2022/02/27 10:15:16;;;;;;;723.30;657.60;;;9.00;99.90;;;;;;5096214;28;20035;-49
2022/02/27 10:17:42;;;;;;;521.70;474.88;;;8.90;99.90;;;;;;5096302;28;20078;-49
2022/02/27 10:20:16;;;;;;;604.67;543.93;;;8.90;99.90;;;;;;5096380;28;20151;-49
2022/02/27 10:22:43;;;;;;;708.87;645.80;;;8.90;99.90;;;;;;5095996;28;20118;-49
2022/02/27 10:25:28;;;;;;;705.53;642.27;;;9.00;99.90;;;;;;5096041;28;20082;-49
2022/02/27 10:27:58;;;;;;;351.73;319.77;;;8.90;99.90;;;;;;5095852;28;20051;-49
2022/02/27 10:30:30;;;;;;;732.73;667.93;;;8.90;99.90;;;;;;5093548;28;20035;-49
2022/02/27 10:33:05;;;;;;;741.63;676.17;;;9.00;99.90;;;;;;5074999;28;20396;-50
2022/02/27 10:35:45;;;;;;;793.38;722.08;;;9.00;99.90;;;;;;5090040;28;20672;-48
2022/02/27 10:38:52;;;;;;;17.00;9.23;;;9.20;99.90;;;;;;5090572;28;20052;-48
2022/02/27 10:41:21;;;;;;;7.82;3.65;;;9.30;99.90;;;;;;5075468;28;20037;-48
2022/02/27 10:43:48;;;;;;;4.45;3.15;;;9.30;99.90;;;;;;5075631;28;20115;-50
2022/02/27 10:46:15;;;;;;;8.73;4.07;;;;;;;;;;5075066;28;20033;-50
2022/02/27 10:48:41;;;;;;;5.97;3.60;;;9.50;99.90;;;;;;5075263;28;20059;-50
2022/02/27 10:51:13;;;;;;;6.18;3.58;;;9.30;99.90;;;;;;5072845;28;20091;-50
2022/02/27 10:53:45;;;;;;;7.38;4.70;;;9.50;99.90;;;;;;5075560;28;20098;-51
2022/02/27 10:56:12;;;;;;;;;;;9.50;99.90;;;;;;5055623;28;20551;-56
2022/02/27 10:58:43;;;;;;;3.83;2.47;;;9.40;99.90;;;;;;5071395;28;20310;-52
2022/02/27 11:01:25;;;;;;;5.07;3.03;;;9.30;99.90;;;;;;5085646;28;20051;-52
2022/02/27 11:03:55;;;;;;;;;;;9.00;99.90;;;;;;5093516;28;20082;-54
2022/02/27 11:06:21;;;;;;;7.50;4.57;;;9.30;99.90;;;;;;5083501;28;19916;-48
2022/02/27 11:08:48;;;;;;;6.97;3.67;;;9.50;99.90;;;;;;5092069;28;20052;-50
2022/02/27 11:11:14;;;;;;;4.85;2.80;;;9.40;99.90;;;;;;5084161;28;20062;-48
2022/02/27 11:13:44;;;;;;;3.55;2.70;;;9.30;99.90;;;;;;5060007;28;20052;-49
2022/02/27 11:16:11;;;;;;;5.82;3.65;;;9.20;99.90;;;;;;5059488;28;20037;-49
2022/02/27 11:18:38;;;;;;;7.07;4.55;;;9.10;99.90;;;;;;5058474;28;20067;-49
2022/02/27 11:21:04;;;;;;;5.53;3.35;;;9.30;99.90;;;;;;5052476;28;20033;-50
2022/02/27 11:23:31;;;;;;;7.40;3.25;;;8.90;99.90;;;;;;5057699;28;20037;-49
2022/02/27 11:26:00;;;;;;;5.78;3.50;;;8.80;99.90;;;;;;5050363;28;20040;-48
2022/02/27 11:28:27;;;;;;;5.47;3.60;;;8.80;99.90;;;;;;5072123;28;20033;-49
2022/02/27 11:31:01;;;;;;;5.95;3.75;;;9.00;99.90;;;;;;5074443;28;20086;-48
2022/02/27 11:33:27;;;;;;;7.32;3.92;;;8.80;99.90;;;;;;5074676;28;20025;-49
2022/02/27 11:35:55;;;;;;;7.60;4.03;;;9.10;99.90;;;;;;5074582;28;20413;-49
2022/02/27 11:38:30;;;;;;;10.07;3.88;;;9.10;99.90;;;;;;5091503;28;20052;-49
2022/02/27 11:41:16;;;;;;;12.13;5.00;;;9.40;99.90;;;;;;5092231;28;20584;-49
2022/02/27 11:43:57;;;;;;;8.00;4.93;;;9.30;99.90;;;;;;5056265;28;20047;-49
2022/02/27 11:46:32;;;;;;;7.35;4.95;;;9.50;99.90;;;;;;5085651;28;20035;-50
2022/02/27 11:49:18;;;;;;;9.18;5.22;;;9.70;99.90;;;;;;5079438;28;20044;-50
2022/02/27 11:52:00;;;;;;;4.15;2.83;;;9.50;99.90;;;;;;5089183;28;20119;-49
2022/02/27 11:54:37;;;;;;;4.82;3.03;;;9.10;99.90;;;;;;5092127;28;20545;-50
2022/02/27 11:57:05;;;;;;;3.65;2.83;;;8.90;99.90;;;;;;5090600;28;20034;-49
2022/02/27 11:59:57;;;;;;;6.97;4.00;;;8.90;99.90;;;;;;5045316;28;20127;-50
2022/02/27 12:02:30;;;;;;;6.53;4.32;;;8.80;99.90;;;;;;5071809;28;20041;-50
2022/02/27 12:04:57;;;;;;;5.03;3.00;;;8.90;99.90;;;;;;5071826;28;20044;-50
2022/02/27 12:07:24;;;;;;;5.43;3.20;;;8.70;99.90;;;;;;5071818;28;20523;-50
2022/02/27 12:09:53;;;;;;;3.38;2.67;;;8.60;99.90;;;;;;5058870;28;20049;-49
2022/02/27 12:12:37;;;;;;;3.75;2.47;;;8.40;99.90;;;;;;5068621;28;20051;-49
2022/02/27 12:15:21;;;;;;;5.95;4.00;;;8.50;99.90;;;;;;5053725;28;20032;-48
2022/02/27 12:17:51;;;;;;;5.93;3.08;;;8.70;99.90;;;;;;5053672;28;20033;-50
2022/02/27 12:20:57;;;;;;;4.22;2.38;;;8.70;99.90;;;;;;5053610;28;20040;-49
2022/02/27 12:23:31;;;;;;;5.88;3.38;;;8.70;99.90;;;;;;5068481;28;20038;-50
2022/02/27 12:25:59;;;;;;;5.50;3.00;;;8.90;99.90;;;;;;5071428;28;20043;-49
2022/02/27 12:28:49;;;;;;;8.25;3.45;;;8.90;99.90;;;;;;5073440;28;20036;-49
2022/02/27 12:31:25;;;;;;;5.45;3.08;;;8.70;99.90;;;;;;5073512;28;20040;-48
2022/02/27 12:33:52;;;;;;;5.72;3.80;;;8.80;99.90;;;;;;5071674;28;20048;-50
2022/02/27 12:36:26;;;;;;;7.72;4.13;;;8.80;99.90;;;;;;5054189;28;20074;-49
2022/02/27 12:38:58;;;;;;;86.82;51.95;;;8.80;99.90;;;;;;5070117;28;20444;-49
2022/02/27 12:41:28;;;;;;;11.50;5.32;;;8.80;99.90;;;;;;5070642;28;20048;-52
2022/02/27 12:43:54;;;;;;;4.78;2.83;;;8.90;99.90;;;;;;5060920;28;20047;-51